createdAt,value
2023-02-22T00:02:27.713Z,50.00
2023-02-22T00:04:56.734Z,49.69
2023-02-22T00:07:25.222Z,49.81
2023-02-22T00:09:53.261Z,49.92
2023-02-22T00:12:22.280Z,49.89
2023-02-22T00:14:51.511Z,49.98
2023-02-22T00:17:20.709Z,50.22
2023-02-22T00:20:15.463Z,50.72
2023-02-22T00:22:49.135Z,50.63
2023-02-22T00:25:22.770Z,50.39
2023-02-22T00:27:57.234Z,50.26
2023-02-22T00:30:27.952Z,50.22
2023-02-22T00:32:57.202Z,50.09
2023-02-22T00:35:28.980Z,50.83
2023-02-22T00:38:00.229Z,50.54
2023-02-22T00:40:34.092Z,50.47
2023-02-22T00:43:09.222Z,49.91
2023-02-22T00:45:37.965Z,50.13
2023-02-22T00:48:07.562Z,50.14
2023-02-22T00:50:38.328Z,49.82
2023-02-22T00:53:08.106Z,49.88
2023-02-22T00:55:38.572Z,49.76
2023-02-22T00:58:10.319Z,50.11
2023-02-22T01:00:42.338Z,50.01
2023-02-22T01:03:13.193Z,49.72
2023-02-22T01:05:41.252Z,49.98
2023-02-22T01:08:11.374Z,49.56
2023-02-22T01:10:42.303Z,50.13
2023-02-22T01:13:12.610Z,50.01
2023-02-22T01:15:43.134Z,49.63
2023-02-22T01:18:13.163Z,49.91
2023-02-22T01:20:41.047Z,49.85
2023-02-22T01:23:10.888Z,49.79
2023-02-22T01:25:38.744Z,49.93
2023-02-22T01:28:08.163Z,49.69
2023-02-22T01:40:10.234Z,49.41
2023-02-22T01:42:39.989Z,49.40
2023-02-22T01:45:42.328Z,49.28
2023-02-22T01:48:45.687Z,49.48
2023-02-22T01:51:21.246Z,49.27
2023-02-22T01:54:18.352Z,49.17
2023-02-22T01:57:00.366Z,48.77
2023-02-22T01:59:33.406Z,49.14
2023-02-22T02:02:01.877Z,49.08
2023-02-22T02:04:30.290Z,48.76
2023-02-22T02:07:03.174Z,49.11
2023-02-22T02:09:42.530Z,48.59
2023-02-22T02:12:15.416Z,48.89
2023-02-22T02:14:44.455Z,48.71
2023-02-22T02:17:15.816Z,48.82
2023-02-22T02:19:52.671Z,48.58
2023-02-22T02:22:43.671Z,48.67
2023-02-22T02:26:00.760Z,48.56
2023-02-22T02:29:22.203Z,48.84
2023-02-22T02:32:11.907Z,48.66
2023-02-22T02:35:22.268Z,48.45
2023-02-22T02:38:11.076Z,48.73
2023-02-22T02:41:19.632Z,48.84
2023-02-22T02:43:59.661Z,48.68
2023-02-22T02:46:46.095Z,48.43
2023-02-22T02:49:20.863Z,48.24
2023-02-22T02:51:54.140Z,48.04
2023-02-22T02:54:24.309Z,48.32
2023-02-22T02:56:55.073Z,48.26
2023-02-22T02:59:34.744Z,48.30
2023-02-22T03:02:30.598Z,47.94
2023-02-22T03:05:13.453Z,48.25
2023-02-22T03:08:32.187Z,48.41
2023-02-22T03:11:04.393Z,48.33
2023-02-22T03:13:58.062Z,48.30
2023-02-22T03:16:52.882Z,47.92
2023-02-22T03:20:09.915Z,48.04
2023-02-22T03:22:58.051Z,47.99
2023-02-22T03:25:37.469Z,47.53
2023-02-22T03:28:12.215Z,47.63
2023-02-22T03:30:49.113Z,47.85
2023-02-22T03:33:36.689Z,47.85
2023-02-22T03:36:13.664Z,47.64
2023-02-22T03:38:44.465Z,47.61
2023-02-22T03:41:20.514Z,47.57
2023-02-22T03:43:55.741Z,47.51
2023-02-22T03:46:24.854Z,47.83
2023-02-22T03:49:11.554Z,47.46
2023-02-22T03:51:41.554Z,47.50
2023-02-22T03:54:16.574Z,47.48
2023-02-22T03:57:11.603Z,47.59
2023-02-22T03:59:43.359Z,47.50
2023-02-22T04:02:11.173Z,47.88
2023-02-22T04:04:39.152Z,47.75
2023-02-22T04:07:09.110Z,47.60
2023-02-22T04:09:37.374Z,47.21
2023-02-22T04:12:05.713Z,47.35
2023-02-22T04:14:45.077Z,47.74
2023-02-22T04:17:12.851Z,47.20
2023-02-22T04:19:40.860Z,47.20
2023-02-22T04:22:08.864Z,47.10
2023-02-22T04:24:36.550Z,47.55
2023-02-22T04:27:04.477Z,47.01
2023-02-22T04:29:34.723Z,47.45
2023-02-22T04:32:04.628Z,47.39
2023-02-22T04:34:32.817Z,47.37
2023-02-22T04:37:00.729Z,46.93
2023-02-22T04:39:29.856Z,47.04
2023-02-22T04:41:57.795Z,47.07
2023-02-22T04:44:26.707Z,47.36
2023-02-22T04:46:54.709Z,47.45
2023-02-22T04:49:24.160Z,47.13
2023-02-22T04:51:53.588Z,47.03
2023-02-22T04:54:26.848Z,47.01
2023-02-22T04:56:54.834Z,47.24
2023-02-22T04:59:23.585Z,46.95
2023-02-22T05:02:01.070Z,46.81
2023-02-22T05:04:28.945Z,46.89
2023-02-22T05:06:56.917Z,47.02
2023-02-22T05:09:24.973Z,46.50
2023-02-22T05:11:52.985Z,46.86
2023-02-22T05:14:22.101Z,46.80
2023-02-22T05:17:14.013Z,47.13
2023-02-22T05:19:42.909Z,46.84
2023-02-22T05:22:10.736Z,46.85
2023-02-22T05:24:40.362Z,46.99
2023-02-22T05:27:08.381Z,47.20
2023-02-22T05:29:41.083Z,47.22
2023-02-22T05:32:11.400Z,47.44
2023-02-22T05:34:39.345Z,47.17
2023-02-22T05:37:07.798Z,46.90
2023-02-22T05:39:35.664Z,47.15
2023-02-22T05:42:03.817Z,47.62
2023-02-22T05:44:34.021Z,47.59
2023-02-22T05:47:03.363Z,47.51
2023-02-22T05:49:31.287Z,47.37
2023-02-22T05:52:00.014Z,47.63
2023-02-22T05:54:29.100Z,47.26
2023-02-22T05:56:57.220Z,46.96
2023-02-22T05:59:25.108Z,47.10
2023-02-22T06:01:53.147Z,47.24
2023-02-22T06:04:21.801Z,47.31
2023-02-22T06:06:49.745Z,47.12
2023-02-22T06:09:17.947Z,47.33
2023-02-22T06:11:46.558Z,46.98
2023-02-22T06:14:14.467Z,47.27
2023-02-22T06:16:42.316Z,47.63
2023-02-22T06:19:10.029Z,47.40
2023-02-22T06:21:37.981Z,47.39
2023-02-22T06:24:06.364Z,47.61
2023-02-22T06:26:36.414Z,47.36
2023-02-22T06:29:06.054Z,47.65
2023-02-22T06:31:36.780Z,47.34
2023-02-22T06:34:08.408Z,47.25
2023-02-22T06:36:36.269Z,47.29
2023-02-22T06:39:05.465Z,47.45
2023-02-22T06:41:37.940Z,47.32
2023-02-22T06:44:13.449Z,47.08
2023-02-22T06:46:49.081Z,47.61
2023-02-22T06:49:17.650Z,47.73
2023-02-22T06:51:46.951Z,47.76
2023-02-22T06:54:15.580Z,48.45
2023-02-22T06:56:43.658Z,48.28
2023-02-22T06:59:11.491Z,48.78
2023-02-22T07:01:43.091Z,48.16
2023-02-22T07:04:16.981Z,47.69
2023-02-22T07:06:52.127Z,47.85
2023-02-22T07:09:20.057Z,47.42
2023-02-22T07:11:48.394Z,47.82
2023-02-22T07:14:18.726Z,47.70
2023-02-22T07:16:46.714Z,47.34
2023-02-22T07:19:15.090Z,47.26
2023-02-22T07:21:43.427Z,47.14
2023-02-22T07:24:11.334Z,47.43
2023-02-22T07:26:43.219Z,47.26
2023-02-22T07:29:12.687Z,47.60
2023-02-22T07:31:40.520Z,47.30
2023-02-22T07:34:08.639Z,47.47
2023-02-22T07:36:36.420Z,47.51
2023-02-22T07:39:04.240Z,47.43
2023-02-22T07:41:32.893Z,47.23
2023-02-22T07:44:01.431Z,47.76
2023-02-22T07:46:30.024Z,47.58
2023-02-22T07:48:57.780Z,47.46
2023-02-22T07:51:25.714Z,47.40
2023-02-22T07:53:54.470Z,47.65
2023-02-22T07:56:22.395Z,47.42
2023-02-22T07:58:50.271Z,47.51
2023-02-22T08:01:19.819Z,47.21
2023-02-22T08:03:47.967Z,47.33
2023-02-22T08:06:15.787Z,47.38
2023-02-22T08:08:43.590Z,47.24
2023-02-22T08:11:11.335Z,47.25
2023-02-22T08:13:39.900Z,47.34
2023-02-22T08:16:08.082Z,47.42
2023-02-22T08:18:38.377Z,47.41
2023-02-22T08:21:06.291Z,47.85
2023-02-22T08:23:34.936Z,48.01
2023-02-22T08:26:08.629Z,48.00
2023-02-22T08:28:36.842Z,47.89
2023-02-22T08:31:07.789Z,48.09
2023-02-22T08:33:36.099Z,48.04
2023-02-22T08:36:04.214Z,47.98
2023-02-22T08:38:34.153Z,48.37
2023-02-22T08:41:01.992Z,48.04
2023-02-22T08:43:29.927Z,47.11
2023-02-22T08:45:58.079Z,47.37
2023-02-22T08:48:26.066Z,47.74
2023-02-22T08:50:55.131Z,47.49
2023-02-22T08:53:23.428Z,47.78
2023-02-22T08:55:51.911Z,47.62
2023-02-22T08:58:19.946Z,47.29
2023-02-22T09:00:48.044Z,47.14
2023-02-22T09:03:16.281Z,47.46
2023-02-22T09:05:45.889Z,46.69
2023-02-22T09:08:13.920Z,47.56
2023-02-22T09:10:42.151Z,47.35
2023-02-22T09:13:09.852Z,47.07
2023-02-22T09:15:39.949Z,47.03
2023-02-22T09:18:11.329Z,47.24
2023-02-22T09:20:39.321Z,46.35
2023-02-22T09:23:09.951Z,45.44
2023-02-22T09:25:41.136Z,45.42
2023-02-22T09:28:09.493Z,45.65
2023-02-22T09:30:37.690Z,45.93
2023-02-22T09:33:12.656Z,45.74
2023-02-22T09:35:48.081Z,45.82
2023-02-22T09:38:19.173Z,45.50
2023-02-22T09:40:53.281Z,45.73
2023-02-22T09:43:40.815Z,44.88
2023-02-22T09:46:56.526Z,45.47
2023-02-22T09:49:47.471Z,45.37
2023-02-22T09:52:24.498Z,45.66
2023-02-22T09:55:18.116Z,44.94
2023-02-22T09:57:47.849Z,44.82
2023-02-22T10:00:22.331Z,44.71
2023-02-22T10:02:58.298Z,44.29
2023-02-22T10:05:34.481Z,44.77
2023-02-22T10:08:06.528Z,45.45
2023-02-22T10:10:39.985Z,46.45
2023-02-22T10:13:43.133Z,46.21
2023-02-22T10:16:31.504Z,45.92
2023-02-22T10:19:21.374Z,45.56
2023-02-22T10:22:05.326Z,46.34
2023-02-22T10:24:58.345Z,45.92
2023-02-22T10:27:52.952Z,45.94
2023-02-22T10:30:25.989Z,45.50
2023-02-22T10:33:22.915Z,45.62
2023-02-22T10:35:53.205Z,46.26
2023-02-22T10:38:25.061Z,46.30
2023-02-22T10:41:11.205Z,46.68
2023-02-22T10:43:44.045Z,46.79
2023-02-22T10:46:16.858Z,46.48
2023-02-22T10:48:47.830Z,46.92
2023-02-22T10:51:15.562Z,47.32
2023-02-22T10:53:44.338Z,47.33
2023-02-22T10:56:16.946Z,46.28
2023-02-22T10:59:02.688Z,46.04
2023-02-22T11:01:34.103Z,45.27
2023-02-22T11:04:21.883Z,45.54
2023-02-22T11:07:01.936Z,44.96
2023-02-22T11:09:29.699Z,45.37
2023-02-22T11:12:19.560Z,45.16
2023-02-22T11:14:48.335Z,45.73
2023-02-22T11:17:24.911Z,45.71
2023-02-22T11:19:53.539Z,45.23
2023-02-22T11:22:37.531Z,45.65
2023-02-22T11:25:07.721Z,45.63
2023-02-22T11:27:43.918Z,45.61
2023-02-22T11:30:35.262Z,46.33
2023-02-22T11:33:25.044Z,46.34
2023-02-22T11:35:57.131Z,46.11
2023-02-22T11:38:29.754Z,45.89
2023-02-22T11:41:10.268Z,46.16
2023-02-22T11:43:38.286Z,46.42
2023-02-22T11:46:21.707Z,46.18
2023-02-22T11:49:02.543Z,45.90
2023-02-22T11:51:38.997Z,46.30
2023-02-22T11:54:25.649Z,46.46
2023-02-22T11:57:18.181Z,46.73
2023-02-22T12:00:16.747Z,46.09
2023-02-22T12:02:56.879Z,46.19
2023-02-22T12:05:37.373Z,46.36
2023-02-22T12:08:20.074Z,46.57
2023-02-22T12:10:51.127Z,46.42
2023-02-22T12:13:53.087Z,46.65
2023-02-22T12:17:02.782Z,46.85
2023-02-22T12:19:39.833Z,46.71
2023-02-22T12:22:14.966Z,46.67
2023-02-22T12:24:51.586Z,46.35
2023-02-22T12:27:33.782Z,46.48
2023-02-22T12:30:18.501Z,47.25
2023-02-22T12:32:55.577Z,46.77
2023-02-22T12:35:37.036Z,46.96
2023-02-22T12:38:18.241Z,46.83
2023-02-22T12:41:09.035Z,48.80
2023-02-22T12:43:45.022Z,47.26
2023-02-22T12:46:20.600Z,46.35
2023-02-22T12:48:57.107Z,46.58
2023-02-22T12:51:32.357Z,46.44
2023-02-22T12:54:34.577Z,46.28
2023-02-22T12:57:29.023Z,46.18
2023-02-22T13:00:04.250Z,46.62
2023-02-22T13:02:39.940Z,46.84
2023-02-22T13:05:15.606Z,47.41
2023-02-22T13:07:55.389Z,47.54
2023-02-22T13:10:35.412Z,47.05
2023-02-22T13:13:31.848Z,47.27
2023-02-22T13:16:32.055Z,47.12
2023-02-22T13:19:09.107Z,47.02
2023-02-22T13:21:53.478Z,47.12
2023-02-22T13:24:27.574Z,47.00
2023-02-22T13:27:12.124Z,47.16
2023-02-22T13:29:44.970Z,47.15
2023-02-22T13:32:37.436Z,47.20
2023-02-22T13:35:26.823Z,47.09
2023-02-22T13:38:39.564Z,47.82
2023-02-22T13:41:17.081Z,48.93
2023-02-22T13:44:00.201Z,49.21
2023-02-22T13:47:10.390Z,48.91
2023-02-22T13:49:56.608Z,48.21
2023-02-22T13:52:28.026Z,47.96
2023-02-22T13:55:11.429Z,48.01
2023-02-22T13:57:51.981Z,48.13
2023-02-22T14:00:23.972Z,47.96
2023-02-22T14:03:12.981Z,48.06
2023-02-22T14:05:47.035Z,48.48
2023-02-22T14:08:22.087Z,47.97
2023-02-22T14:10:57.330Z,47.96
2023-02-22T14:13:27.830Z,48.21
2023-02-22T14:16:02.549Z,48.04
2023-02-22T14:18:46.861Z,47.93
2023-02-22T14:21:22.712Z,48.13
2023-02-22T14:23:55.961Z,48.13
2023-02-22T14:26:54.520Z,48.05
2023-02-22T14:29:22.847Z,47.89
2023-02-22T14:31:51.002Z,48.09
2023-02-22T14:34:49.763Z,47.49
2023-02-22T14:37:22.050Z,47.66
2023-02-22T14:40:02.390Z,48.00
2023-02-22T14:42:41.974Z,47.88
2023-02-22T14:45:09.812Z,47.77
2023-02-22T14:47:49.765Z,47.98
2023-02-22T14:50:25.300Z,47.68
2023-02-22T14:53:20.918Z,48.14
2023-02-22T14:56:04.246Z,48.43
2023-02-22T14:58:47.347Z,48.02
2023-02-22T15:04:29.045Z,48.27
2023-02-22T15:07:00.149Z,48.38
2023-02-22T15:09:34.713Z,48.22
2023-02-22T15:12:07.780Z,47.93
2023-02-22T15:14:39.119Z,47.87
2023-02-22T15:17:18.698Z,47.99
2023-02-22T15:19:48.978Z,48.04
2023-02-22T15:22:26.434Z,47.40
2023-02-22T15:25:06.048Z,47.35
2023-02-22T15:27:38.159Z,47.46
2023-02-22T15:30:30.322Z,47.38
2023-02-22T15:33:15.358Z,47.48
2023-02-22T15:35:44.040Z,47.36
2023-02-22T15:38:12.133Z,47.16
2023-02-22T15:40:43.524Z,47.39
2023-02-22T15:43:25.223Z,47.29
2023-02-22T15:45:56.922Z,47.45
2023-02-22T15:48:27.869Z,47.49
2023-02-22T15:51:17.418Z,47.47
2023-02-22T15:53:50.997Z,47.50
2023-02-22T15:56:26.168Z,47.04
2023-02-22T15:59:12.395Z,47.49
2023-02-22T16:01:46.444Z,47.36
2023-02-22T16:04:28.046Z,47.45
2023-02-22T16:07:17.164Z,48.29
2023-02-22T16:09:50.679Z,48.31
2023-02-22T16:12:29.201Z,49.23
2023-02-22T16:14:59.415Z,49.44
2023-02-22T16:17:44.594Z,49.54
2023-02-22T16:20:25.111Z,49.74
2023-02-22T16:22:58.107Z,49.09
2023-02-22T16:25:33.185Z,49.05
2023-02-22T16:28:06.571Z,49.29
2023-02-22T16:30:39.786Z,49.40
2023-02-22T16:33:16.746Z,49.62
2023-02-22T16:35:52.513Z,49.58
2023-02-22T16:38:21.347Z,49.54
2023-02-22T16:40:55.712Z,49.52
2023-02-22T16:43:27.767Z,49.73
2023-02-22T16:45:56.101Z,49.50
2023-02-22T16:48:26.776Z,48.90
2023-02-22T16:50:57.217Z,49.18
2023-02-22T16:53:29.017Z,49.15
2023-02-22T16:56:09.569Z,49.21
2023-02-22T16:58:41.587Z,49.21
2023-02-22T17:01:09.852Z,49.44
2023-02-22T17:03:37.633Z,49.39
2023-02-22T17:06:06.001Z,49.24
2023-02-22T17:08:33.837Z,49.22
2023-02-22T17:11:01.932Z,49.41
2023-02-22T17:13:29.915Z,49.11
2023-02-22T17:15:58.012Z,49.48
2023-02-22T17:18:29.114Z,49.36
2023-02-22T17:20:58.052Z,49.09
2023-02-22T17:23:27.863Z,49.29
2023-02-22T17:25:59.378Z,49.30
2023-02-22T17:28:27.452Z,48.87
2023-02-22T17:31:01.813Z,49.15
2023-02-22T17:33:37.153Z,49.46
2023-02-22T17:36:05.463Z,49.33
2023-02-22T17:38:34.938Z,50.35
2023-02-22T17:41:03.578Z,50.74
2023-02-22T17:43:31.399Z,51.12
2023-02-22T17:45:59.582Z,50.47
2023-02-22T17:48:36.309Z,49.83
2023-02-22T17:51:11.003Z,49.91
2023-02-22T17:53:41.140Z,49.50
2023-02-22T17:56:12.501Z,49.80
2023-02-22T17:58:43.219Z,49.86
2023-02-22T18:01:30.282Z,49.58
2023-02-22T18:04:01.390Z,49.62
2023-02-22T18:06:32.974Z,49.77
2023-02-22T18:09:10.934Z,49.95
2023-02-22T18:11:45.535Z,50.25
2023-02-22T18:14:17.012Z,50.05
2023-02-22T18:16:47.511Z,50.09
2023-02-22T18:19:22.992Z,49.85
2023-02-22T18:21:54.365Z,50.18
2023-02-22T18:24:27.136Z,50.24
2023-02-22T18:26:54.778Z,51.85
2023-02-22T18:29:22.709Z,51.56
2023-02-22T18:31:53.895Z,51.97
2023-02-22T18:34:25.090Z,51.29
2023-02-22T18:36:53.064Z,50.24
2023-02-22T18:39:20.760Z,49.79
2023-02-22T18:41:51.458Z,49.72
2023-02-22T18:44:20.832Z,49.80
2023-02-22T18:46:48.581Z,49.89
2023-02-22T18:49:17.407Z,50.06
2023-02-22T18:51:46.778Z,50.66
2023-02-22T18:54:14.909Z,50.52
2023-02-22T18:56:42.859Z,49.79
2023-02-22T18:59:13.340Z,50.09
2023-02-22T19:01:42.082Z,49.93
2023-02-22T19:04:10.707Z,49.00
2023-02-22T19:06:39.784Z,49.15
2023-02-22T19:09:08.849Z,48.77
2023-02-22T19:11:37.501Z,48.61
2023-02-22T19:14:05.488Z,48.75
2023-02-22T19:16:33.517Z,49.03
2023-02-22T19:19:02.616Z,48.86
2023-02-22T19:21:31.789Z,48.79
2023-02-22T19:24:02.791Z,48.79
2023-02-22T19:26:30.969Z,48.43
2023-02-22T19:29:05.120Z,48.45
2023-02-22T19:31:34.099Z,48.45
2023-02-22T19:34:10.542Z,48.35
2023-02-22T19:36:47.684Z,48.81
2023-02-22T19:39:17.812Z,48.83
2023-02-22T19:41:46.408Z,49.14
2023-02-22T19:44:17.802Z,49.12
2023-02-22T19:46:47.382Z,49.33
2023-02-22T19:49:16.330Z,49.55
2023-02-22T19:51:45.799Z,48.97
2023-02-22T19:54:17.646Z,49.21
2023-02-22T19:56:51.259Z,49.57
2023-02-22T19:59:23.112Z,49.41
2023-02-22T20:01:55.890Z,49.44
2023-02-22T20:04:25.492Z,49.20
2023-02-22T20:06:54.866Z,49.49
2023-02-22T20:09:30.154Z,48.96
2023-02-22T20:11:58.799Z,49.19
2023-02-22T20:14:28.769Z,49.28
2023-02-22T20:16:58.630Z,49.85
2023-02-22T20:19:28.272Z,51.01
2023-02-22T20:21:56.866Z,51.01
2023-02-22T20:24:25.679Z,50.67
2023-02-22T20:26:55.947Z,49.86
2023-02-22T20:29:29.918Z,49.39
2023-02-22T20:32:03.298Z,48.84
2023-02-22T20:34:33.734Z,48.75
2023-02-22T20:37:02.240Z,48.65
2023-02-22T20:39:30.224Z,48.49
2023-02-22T20:42:03.071Z,48.15
2023-02-22T20:44:31.105Z,48.62
2023-02-22T20:46:59.104Z,48.10
2023-02-22T20:49:27.990Z,48.69
2023-02-22T20:51:55.724Z,48.97
2023-02-22T20:54:31.001Z,48.92
2023-02-22T20:57:07.390Z,48.45
2023-02-22T20:59:35.490Z,48.28
2023-02-22T21:02:05.287Z,48.38
2023-02-22T21:04:33.249Z,48.50
2023-02-22T21:07:03.953Z,48.30
2023-02-22T21:09:33.946Z,51.69
2023-02-22T21:12:01.940Z,52.68
2023-02-22T21:14:32.701Z,51.82
2023-02-22T21:17:05.953Z,50.63
2023-02-22T21:19:34.608Z,50.70
2023-02-22T21:22:08.388Z,50.37
2023-02-22T21:24:37.095Z,48.93
2023-02-22T21:27:07.118Z,48.22
2023-02-22T21:29:35.667Z,47.42
2023-02-22T21:32:04.271Z,47.12
2023-02-22T21:34:32.480Z,46.53
2023-02-22T21:37:02.643Z,46.74
2023-02-22T21:39:39.087Z,46.97
2023-02-22T21:42:22.484Z,46.88
2023-02-22T21:45:20.858Z,47.03
2023-02-22T21:47:54.713Z,47.13
2023-02-22T21:50:31.346Z,46.60
2023-02-22T21:52:59.480Z,46.62
2023-02-22T21:55:27.338Z,46.38
2023-02-22T21:58:05.105Z,46.50
2023-02-22T22:00:39.273Z,46.69
2023-02-22T22:03:20.660Z,46.96
2023-02-22T22:05:48.957Z,46.93
2023-02-22T22:08:19.939Z,47.07
2023-02-22T22:11:09.443Z,46.76
2023-02-22T22:13:45.587Z,46.90
2023-02-22T22:16:23.375Z,46.58
2023-02-22T22:18:54.779Z,46.76
2023-02-22T22:24:16.832Z,46.42
2023-02-22T22:26:58.003Z,46.42
2023-02-22T22:29:39.178Z,46.30
2023-02-22T22:32:10.841Z,46.22
2023-02-22T22:34:49.501Z,45.79
2023-02-22T22:37:28.510Z,45.47
2023-02-22T22:40:12.254Z,45.51
2023-02-22T22:42:47.487Z,45.31
2023-02-22T22:45:22.944Z,45.71
2023-02-22T22:47:59.399Z,45.36
2023-02-22T22:50:27.434Z,45.52
2023-02-22T22:53:23.609Z,45.74
2023-02-22T22:55:54.500Z,45.41
2023-02-22T22:58:48.702Z,45.62
2023-02-22T23:01:39.788Z,45.83
2023-02-22T23:04:19.488Z,45.77
2023-02-22T23:07:11.142Z,45.58
2023-02-22T23:09:45.245Z,45.91
2023-02-22T23:12:17.948Z,45.69
2023-02-22T23:14:53.304Z,45.83
2023-02-22T23:21:14.854Z,45.50
2023-02-22T23:23:57.760Z,45.97
2023-02-22T23:26:57.768Z,46.11
2023-02-22T23:29:29.838Z,46.29
2023-02-22T23:32:05.790Z,46.39
2023-02-22T23:34:58.750Z,46.07
2023-02-22T23:37:30.262Z,46.61
2023-02-22T23:40:03.928Z,46.03
2023-02-22T23:42:55.590Z,45.93
2023-02-22T23:45:24.261Z,46.17
2023-02-22T23:48:05.193Z,46.17
2023-02-22T23:50:42.108Z,45.95
2023-02-22T23:53:27.769Z,46.02
2023-02-22T23:56:17.016Z,46.20
2023-02-22T23:58:50.427Z,46.00
